createdAt,value
2022-08-18T00:00:23.458Z,100655.84
2022-08-18T00:03:20.243Z,100649.09
2022-08-18T00:06:19.618Z,100644.97
2022-08-18T00:09:09.639Z,100645.44
2022-08-18T00:11:56.931Z,100657.75
2022-08-18T00:14:46.015Z,100651.69
2022-08-18T00:17:34.630Z,100654.09
2022-08-18T00:20:23.692Z,100657.81
2022-08-18T00:23:11.057Z,100642.44
2022-08-18T00:25:59.902Z,100650.94
2022-08-18T00:28:47.158Z,100647.50
2022-08-18T00:31:34.554Z,100644.09
2022-08-18T00:34:21.778Z,100638.56
2022-08-18T00:37:09.053Z,100645.09
2022-08-18T00:39:56.470Z,100632.78
2022-08-18T00:42:48.760Z,100637.28
2022-08-18T00:45:40.665Z,100634.03
2022-08-18T00:48:27.946Z,100631.78
2022-08-18T00:51:20.950Z,100626.47
2022-08-18T00:54:16.142Z,100621.81
2022-08-18T00:57:06.832Z,100608.19
2022-08-18T01:00:07.458Z,100608.94
2022-08-18T01:02:57.763Z,100614.34
2022-08-18T01:06:10.244Z,100618.31
2022-08-18T01:08:57.956Z,100616.00
2022-08-18T01:11:46.005Z,100626.38
2022-08-18T01:14:33.272Z,100623.63
2022-08-18T01:17:39.910Z,100589.78
2022-08-18T01:20:52.746Z,100632.19
2022-08-18T01:23:40.410Z,100638.56
2022-08-18T01:26:30.289Z,100640.41
2022-08-18T01:29:19.644Z,100645.09
2022-08-18T01:32:06.971Z,100647.88
2022-08-18T01:34:54.864Z,100661.50
2022-08-18T01:37:42.179Z,100663.38
2022-08-18T01:41:17.457Z,100669.53
2022-08-18T01:43:37.379Z,100665.94
2022-08-18T01:46:24.728Z,100661.84
2022-08-18T01:49:13.203Z,100663.00
2022-08-18T01:52:00.538Z,100653.75
2022-08-18T01:54:48.807Z,100659.00
2022-08-18T01:57:44.873Z,100649.09
2022-08-18T02:00:32.479Z,100640.91
2022-08-18T02:03:20.095Z,100644.59
2022-08-18T02:06:14.727Z,100636.94
2022-08-18T02:09:02.242Z,100635.78
2022-08-18T02:11:55.846Z,100635.91
2022-08-18T02:14:43.806Z,100650.38
2022-08-18T02:17:37.962Z,100653.56
2022-08-18T02:20:25.525Z,100654.78
2022-08-18T02:23:12.777Z,100642.47
2022-08-18T02:26:04.644Z,100647.59
2022-08-18T02:28:52.327Z,100647.41
2022-08-18T02:31:39.805Z,100602.00
2022-08-18T02:34:27.162Z,100627.06
2022-08-18T02:37:15.558Z,100633.41
2022-08-18T02:40:03.970Z,100645.28
2022-08-18T02:42:52.710Z,100640.88
2022-08-18T02:45:40.145Z,100638.84
2022-08-18T02:48:36.510Z,100631.19
2022-08-18T02:51:25.787Z,100626.41
2022-08-18T02:54:13.386Z,100635.94
2022-08-18T02:57:07.973Z,100632.28
2022-08-18T02:59:55.487Z,100625.13
2022-08-18T03:02:51.359Z,100629.25
2022-08-18T03:05:39.325Z,100627.72
2022-08-18T03:08:26.608Z,100628.81
2022-08-18T03:11:13.979Z,100631.91
2022-08-18T03:14:01.338Z,100622.22
2022-08-18T03:16:54.522Z,100625.69
2022-08-18T03:19:44.947Z,100628.53
2022-08-18T03:22:35.064Z,100627.75
2022-08-18T03:25:22.403Z,100621.81
2022-08-18T03:28:09.895Z,100616.91
2022-08-18T03:30:57.428Z,100613.38
2022-08-18T03:33:46.446Z,100631.06
2022-08-18T03:36:35.314Z,100630.47
2022-08-18T03:39:26.864Z,100650.75
2022-08-18T03:42:14.187Z,100651.22
2022-08-18T03:45:01.452Z,100651.94
2022-08-18T03:48:05.025Z,100646.56
2022-08-18T03:50:52.268Z,100652.16
2022-08-18T03:53:40.175Z,100640.03
2022-08-18T03:56:33.961Z,100646.09
2022-08-18T03:59:24.083Z,100644.91
2022-08-18T04:02:11.877Z,100648.47
2022-08-18T04:04:59.157Z,100643.00
2022-08-18T04:07:46.435Z,100635.84
2022-08-18T04:10:35.453Z,100634.19
2022-08-18T04:13:22.695Z,100636.59
2022-08-18T04:16:10.514Z,100632.88
2022-08-18T04:19:04.844Z,100640.03
2022-08-18T04:21:53.472Z,100613.00
2022-08-18T04:24:40.742Z,100643.94
2022-08-18T04:27:29.653Z,100642.53
2022-08-18T04:30:16.951Z,100664.53
2022-08-18T04:33:06.273Z,100669.31
2022-08-18T04:35:55.301Z,100670.25
2022-08-18T04:38:42.785Z,100678.22
2022-08-18T04:41:30.108Z,100680.25
2022-08-18T04:44:18.459Z,100675.25
2022-08-18T04:47:07.498Z,100678.84
2022-08-18T04:49:54.756Z,100684.44
2022-08-18T04:53:01.946Z,100689.91
2022-08-18T04:55:55.323Z,100682.31
2022-08-18T04:58:42.584Z,100685.28
2022-08-18T05:01:37.483Z,100687.28
2022-08-18T05:04:28.624Z,100696.47
2022-08-18T05:07:19.651Z,100689.41
2022-08-18T05:10:07.135Z,100690.03
2022-08-18T05:12:54.610Z,100692.41
2022-08-18T05:16:08.994Z,100697.63
2022-08-18T05:18:49.681Z,100675.00
2022-08-18T05:21:42.842Z,100689.03
2022-08-18T05:24:37.582Z,100698.47
2022-08-18T05:27:25.148Z,100695.03
2022-08-18T05:30:15.332Z,100699.66
2022-08-18T05:33:03.493Z,100691.44
2022-08-18T05:36:03.477Z,100702.84
2022-08-18T05:38:58.786Z,100703.47
2022-08-18T05:42:11.146Z,100703.06
2022-08-18T05:45:00.335Z,100707.22
2022-08-18T05:47:47.860Z,100704.13
2022-08-18T05:50:37.770Z,100711.81
2022-08-18T05:53:45.124Z,100711.59
2022-08-18T05:56:46.398Z,100719.94
2022-08-18T05:59:38.402Z,100726.38
2022-08-18T06:02:38.452Z,100737.44
2022-08-18T06:05:31.626Z,100732.31
2022-08-18T06:08:22.548Z,100732.19
2022-08-18T06:11:17.365Z,100738.50
2022-08-18T06:14:10.787Z,100736.16
2022-08-18T06:17:02.519Z,100734.81
2022-08-18T06:20:01.651Z,100736.72
2022-08-18T06:23:06.127Z,100745.91
2022-08-18T06:26:19.753Z,100742.31
2022-08-18T06:29:37.975Z,100746.47
2022-08-18T06:32:54.621Z,100750.75
2022-08-18T06:35:54.916Z,100751.53
2022-08-18T06:39:16.094Z,100745.34
2022-08-18T06:42:05.538Z,100745.50
2022-08-18T06:44:55.757Z,100746.16
2022-08-18T06:47:54.678Z,100748.00
2022-08-18T06:50:50.195Z,100755.94
2022-08-18T06:54:21.478Z,100755.69
2022-08-18T06:57:22.402Z,100765.47
2022-08-18T07:00:25.575Z,100757.31
2022-08-18T07:03:17.800Z,100751.06
2022-08-18T07:06:06.867Z,100762.06
2022-08-18T07:09:15.376Z,100759.56
2022-08-18T07:12:10.860Z,100743.22
2022-08-18T07:15:01.846Z,100734.13
2022-08-18T07:17:56.263Z,100736.13
2022-08-18T07:20:48.584Z,100733.94
2022-08-18T07:23:39.674Z,100729.13
2022-08-18T07:26:27.017Z,100725.41
2022-08-18T07:29:15.672Z,100730.03
2022-08-18T07:32:20.835Z,100721.00
2022-08-18T07:35:09.958Z,100719.53
2022-08-18T07:38:41.088Z,100739.47
2022-08-18T07:41:31.814Z,100730.88
2022-08-18T07:44:45.123Z,100732.78
2022-08-18T07:47:41.641Z,100733.38
2022-08-18T07:50:58.672Z,100740.94
2022-08-18T07:56:02.539Z,100731.41
2022-08-18T07:58:59.625Z,100744.00
2022-08-18T08:02:08.963Z,100742.09
2022-08-18T08:05:05.244Z,100757.53
2022-08-18T08:07:59.594Z,100758.09
2022-08-18T08:10:59.194Z,100765.22
2022-08-18T08:13:58.353Z,100763.81
2022-08-18T08:16:50.400Z,100763.25
2022-08-18T08:20:01.882Z,100762.88
2022-08-18T08:22:52.560Z,100762.34
2022-08-18T08:25:49.983Z,100762.50
2022-08-18T08:28:56.129Z,100763.00
2022-08-18T08:31:53.105Z,100762.44
2022-08-18T08:34:54.982Z,100776.19
2022-08-18T08:38:22.940Z,100786.06
2022-08-18T08:41:20.113Z,100791.69
2022-08-18T08:44:30.346Z,100777.97
2022-08-18T08:47:30.084Z,100780.94
2022-08-18T08:50:22.869Z,100785.59
2022-08-18T08:53:24.864Z,100791.59
2022-08-18T08:56:16.126Z,100789.75
2022-08-18T08:59:08.690Z,100785.97
2022-08-18T09:02:32.197Z,100781.06
2022-08-18T09:05:27.043Z,100780.66
2022-08-18T09:08:43.105Z,100780.94
2022-08-18T09:11:44.165Z,100777.25
2022-08-18T09:14:56.106Z,100771.31
2022-08-18T09:18:23.851Z,100772.22
2022-08-18T09:21:41.114Z,100769.72
2022-08-18T09:24:40.471Z,100771.06
2022-08-18T09:27:53.941Z,100779.78
2022-08-18T09:31:02.903Z,100764.88
2022-08-18T09:33:56.588Z,100766.53
2022-08-18T09:36:49.750Z,100769.09
2022-08-18T09:40:10.845Z,100775.13
2022-08-18T09:44:17.998Z,100776.66
2022-08-18T09:47:24.250Z,100766.34
2022-08-18T09:50:27.044Z,100773.13
2022-08-18T09:53:32.543Z,100777.00
2022-08-18T09:56:54.538Z,100783.84
2022-08-18T09:59:45.765Z,100776.47
2022-08-18T10:02:36.818Z,100769.63
2022-08-18T10:05:29.223Z,100769.38
2022-08-18T10:08:21.413Z,100774.34
2022-08-18T10:11:37.010Z,100774.38
2022-08-18T10:14:39.603Z,100768.94
2022-08-18T10:18:01.647Z,100775.59
2022-08-18T10:21:07.526Z,100769.56
2022-08-18T10:24:35.024Z,100779.47
2022-08-18T10:27:44.318Z,100759.59
2022-08-18T10:30:56.983Z,100765.13
2022-08-18T10:34:16.967Z,100757.91
2022-08-18T10:37:26.334Z,100757.66
2022-08-18T10:40:21.358Z,100750.72
2022-08-18T10:46:42.626Z,100746.59
2022-08-18T10:49:34.173Z,100746.31
2022-08-18T10:52:33.963Z,100732.97
2022-08-18T10:55:48.422Z,100744.09
2022-08-18T10:58:54.731Z,100736.06
2022-08-18T11:02:01.763Z,100738.59
2022-08-18T11:04:58.896Z,100741.88
2022-08-18T11:07:53.522Z,100730.28
2022-08-18T11:11:24.828Z,100738.84
2022-08-18T11:14:35.864Z,100738.59
2022-08-18T11:17:40.658Z,100729.19
2022-08-18T11:20:32.588Z,100724.78
2022-08-18T11:23:20.750Z,100725.88
2022-08-18T11:26:18.355Z,100713.72
2022-08-18T11:29:24.405Z,100705.41
2022-08-18T11:32:23.071Z,100707.03
2022-08-18T11:35:10.680Z,100698.75
2022-08-18T11:38:13.522Z,100707.38
2022-08-18T11:41:33.145Z,100707.63
2022-08-18T11:44:38.651Z,100710.97
2022-08-18T11:47:27.785Z,100707.66
2022-08-18T11:50:28.135Z,100699.88
2022-08-18T11:53:33.555Z,100696.53
2022-08-18T11:56:30.744Z,100692.63
2022-08-18T11:59:25.053Z,100689.88
2022-08-18T12:02:32.338Z,100684.91
2022-08-18T12:05:19.880Z,100694.56
2022-08-18T12:08:41.895Z,100690.97
2022-08-18T12:11:33.656Z,100719.72
2022-08-18T12:14:30.391Z,100736.09
2022-08-18T12:17:21.817Z,100747.47
2022-08-18T12:20:11.973Z,100740.56
2022-08-18T12:22:59.429Z,100750.47
2022-08-18T12:25:46.722Z,100762.66
2022-08-18T12:28:39.493Z,100775.91
2022-08-18T12:31:29.048Z,100780.03
2022-08-18T12:34:30.133Z,100772.28
2022-08-18T12:37:56.707Z,100760.34
2022-08-18T12:40:27.675Z,100750.09
2022-08-18T12:43:14.934Z,100734.66
2022-08-18T12:46:03.672Z,100726.56
2022-08-18T12:48:51.642Z,100708.31
2022-08-18T12:51:39.664Z,100699.16
2022-08-18T12:54:27.110Z,100704.44
2022-08-18T13:00:29.926Z,100696.94
2022-08-18T13:03:19.059Z,100687.19
2022-08-18T13:06:06.683Z,100687.81
2022-08-18T13:08:58.448Z,100669.19
2022-08-18T13:11:45.914Z,100660.41
2022-08-18T13:14:34.031Z,100664.22
2022-08-18T13:17:32.086Z,100662.88
2022-08-18T13:20:21.585Z,100655.06
2022-08-18T13:23:09.675Z,100649.72
2022-08-18T13:26:02.175Z,100668.28
2022-08-18T13:28:58.256Z,100653.91
2022-08-18T13:31:55.707Z,100657.19
2022-08-18T13:34:44.627Z,100661.88
2022-08-18T13:37:37.414Z,100661.31
2022-08-18T13:40:29.469Z,100661.09
2022-08-18T13:43:20.970Z,100658.03
2022-08-18T13:46:17.294Z,100653.53
2022-08-18T13:49:04.555Z,100665.78
2022-08-18T13:51:59.173Z,100660.50
2022-08-18T13:54:53.308Z,100664.63
2022-08-18T13:57:53.588Z,100677.94
2022-08-18T14:00:42.094Z,100668.69
2022-08-18T14:03:42.945Z,100672.88
2022-08-18T14:06:35.183Z,100672.28
2022-08-18T14:09:27.894Z,100677.41
2022-08-18T14:12:29.614Z,100669.56
2022-08-18T14:15:20.841Z,100671.41
2022-08-18T14:18:08.077Z,100675.47
2022-08-18T14:21:23.418Z,100663.19
2022-08-18T14:24:29.170Z,100658.00
2022-08-18T14:27:24.637Z,100664.66
2022-08-18T14:30:14.671Z,100656.53
2022-08-18T14:33:05.653Z,100672.53
2022-08-18T14:36:06.226Z,100662.78
2022-08-18T14:38:58.054Z,100660.75
2022-08-18T14:41:54.595Z,100661.06
2022-08-18T14:44:42.323Z,100650.44
2022-08-18T14:47:33.333Z,100647.53
2022-08-18T14:50:25.685Z,100640.31
2022-08-18T14:53:14.312Z,100644.78
2022-08-18T14:56:02.498Z,100661.22
2022-08-18T14:58:49.751Z,100648.50
2022-08-18T15:01:42.738Z,100653.75
2022-08-18T15:04:30.428Z,100652.34
2022-08-18T15:07:19.990Z,100645.34
2022-08-18T15:10:14.811Z,100651.38
2022-08-18T15:13:04.255Z,100645.28
2022-08-18T15:15:52.177Z,100647.00
2022-08-18T15:18:41.375Z,100650.34
2022-08-18T15:21:49.123Z,100648.22
2022-08-18T15:24:58.657Z,100650.53
2022-08-18T15:27:46.015Z,100646.59
2022-08-18T15:30:39.838Z,100643.84
2022-08-18T15:33:31.621Z,100642.13
2022-08-18T15:36:29.190Z,100639.34
2022-08-18T15:39:16.926Z,100634.63
2022-08-18T15:42:10.742Z,100639.13
2022-08-18T15:45:11.628Z,100641.00
2022-08-18T15:47:59.832Z,100647.06
2022-08-18T15:50:50.943Z,100644.19
2022-08-18T15:53:40.092Z,100639.22
2022-08-18T15:56:32.869Z,100627.59
2022-08-18T15:59:20.428Z,100636.53
2022-08-18T16:02:11.797Z,100631.13
2022-08-18T16:05:10.475Z,100624.03
2022-08-18T16:08:01.138Z,100626.41
2022-08-18T16:10:48.396Z,100624.16
2022-08-18T16:13:35.750Z,100627.78
2022-08-18T16:16:29.373Z,100613.72
2022-08-18T16:19:25.668Z,100623.16
2022-08-18T16:22:13.364Z,100643.09
2022-08-18T16:25:02.403Z,100627.94
2022-08-18T16:27:49.916Z,100632.69
2022-08-18T16:30:37.309Z,100629.91
2022-08-18T16:33:24.735Z,100627.69
2022-08-18T16:36:14.520Z,100628.19
2022-08-18T16:39:01.654Z,100626.56
2022-08-18T16:41:48.889Z,100626.56
2022-08-18T16:44:36.444Z,100618.84
2022-08-18T16:47:23.740Z,100623.34
2022-08-18T16:50:15.065Z,100611.50
2022-08-18T16:53:02.387Z,100623.69
2022-08-18T16:55:49.849Z,100621.25
2022-08-18T16:58:55.771Z,100618.50
2022-08-18T17:02:01.759Z,100616.84
2022-08-18T17:04:51.929Z,100614.38
2022-08-18T17:07:39.221Z,100610.75
2022-08-18T17:10:26.962Z,100611.56
2022-08-18T17:13:14.639Z,100601.94
2022-08-18T17:16:01.982Z,100610.22
2022-08-18T17:18:49.377Z,100607.22
2022-08-18T17:21:37.557Z,100601.97
2022-08-18T17:24:32.114Z,100599.53
2022-08-18T17:27:26.703Z,100603.13
2022-08-18T17:30:22.427Z,100608.09
2022-08-18T17:33:14.968Z,100610.31
2022-08-18T17:36:08.025Z,100610.63
2022-08-18T17:38:58.877Z,100612.53
2022-08-18T17:42:05.081Z,100603.16
2022-08-18T17:44:58.981Z,100597.63
2022-08-18T17:48:01.681Z,100603.72
2022-08-18T17:51:28.439Z,100593.81
2022-08-18T17:54:33.182Z,100591.31
2022-08-18T17:57:29.384Z,100589.41
2022-08-18T18:00:23.206Z,100587.72
2022-08-18T18:03:13.166Z,100590.50
2022-08-18T18:06:10.608Z,100590.50
2022-08-18T18:09:09.739Z,100585.53
2022-08-18T18:11:57.652Z,100579.72
2022-08-18T18:14:44.946Z,100597.16
2022-08-18T18:17:37.636Z,100601.56
2022-08-18T18:20:39.463Z,100595.22
2022-08-18T18:23:31.376Z,100597.13
2022-08-18T18:26:37.875Z,100604.28
2022-08-18T18:29:33.282Z,100594.34
2022-08-18T18:32:29.137Z,100596.84
2022-08-18T18:35:27.170Z,100604.84
2022-08-18T18:38:36.661Z,100607.59
2022-08-18T18:41:27.822Z,100599.84
2022-08-18T18:44:16.220Z,100594.34
2022-08-18T18:47:14.961Z,100609.22
2022-08-18T18:50:18.832Z,100614.47
2022-08-18T18:53:29.893Z,100615.31
2022-08-18T18:56:40.985Z,100614.75
2022-08-18T19:00:04.142Z,100611.97
2022-08-18T19:03:22.767Z,100619.41
2022-08-18T19:06:19.059Z,100628.19
2022-08-18T19:09:17.718Z,100624.63
2022-08-18T19:12:19.897Z,100622.41
2022-08-18T19:15:14.876Z,100621.84
2022-08-18T19:18:16.105Z,100611.84
2022-08-18T19:22:02.271Z,100612.63
2022-08-18T19:24:24.633Z,100620.09
2022-08-18T19:27:23.290Z,100620.31
2022-08-18T19:30:14.346Z,100620.56
2022-08-18T19:33:04.302Z,100621.06
2022-08-18T19:35:59.926Z,100624.41
2022-08-18T19:38:47.169Z,100622.72
2022-08-18T19:41:39.462Z,100633.44
2022-08-18T19:45:15.397Z,100630.69
2022-08-18T19:48:24.198Z,100616.03
2022-08-18T19:51:27.051Z,100631.78
2022-08-18T19:54:22.275Z,100634.81
2022-08-18T19:57:22.398Z,100611.56
2022-08-18T20:00:31.009Z,100632.63
2022-08-18T20:03:52.486Z,100637.56
2022-08-18T20:07:07.478Z,100599.34
2022-08-18T20:10:16.830Z,100634.66
2022-08-18T20:13:07.465Z,100630.72
2022-08-18T20:16:12.861Z,100636.56
2022-08-18T20:19:01.514Z,100623.28
2022-08-18T20:22:07.986Z,100609.06
2022-08-18T20:25:30.338Z,100619.03
2022-08-18T20:28:32.041Z,100605.44
2022-08-18T20:31:22.717Z,100602.34
2022-08-18T20:34:14.424Z,100638.22
2022-08-18T20:37:10.186Z,100611.13
2022-08-18T20:39:58.051Z,100606.66
2022-08-18T20:42:56.107Z,100625.44
2022-08-18T20:46:14.634Z,100620.97
2022-08-18T20:49:50.333Z,100635.38
2022-08-18T20:53:00.414Z,100610.19
2022-08-18T20:56:31.424Z,100629.81
2022-08-18T20:59:28.745Z,100628.09
2022-08-18T21:02:43.089Z,100640.72
2022-08-18T21:05:35.884Z,100631.56
2022-08-18T21:08:28.840Z,100639.25
2022-08-18T21:11:32.075Z,100629.28
2022-08-18T21:14:29.985Z,100623.22
2022-08-18T21:17:17.648Z,100587.78
2022-08-18T21:20:13.670Z,100594.31
2022-08-18T21:23:44.538Z,100588.44
2022-08-18T21:26:33.545Z,100576.88
2022-08-18T21:29:22.629Z,100581.13
2022-08-18T21:32:12.776Z,100546.25
2022-08-18T21:35:17.787Z,100531.06
2022-08-18T21:38:09.512Z,100567.13
2022-08-18T21:41:00.099Z,100524.41
2022-08-18T21:43:50.301Z,100589.22
2022-08-18T21:46:38.808Z,100527.47
2022-08-18T21:49:28.108Z,100585.28
2022-08-18T21:52:24.151Z,100636.66
2022-08-18T21:55:21.260Z,100576.22
2022-08-18T21:58:09.580Z,100635.22
2022-08-18T22:01:14.841Z,100580.91
2022-08-18T22:04:26.991Z,100640.91
2022-08-18T22:07:34.563Z,100584.88
2022-08-18T22:10:48.123Z,100609.19
2022-08-18T22:14:01.948Z,100582.53
2022-08-18T22:16:50.728Z,100585.19
2022-08-18T22:19:38.140Z,100545.00
2022-08-18T22:23:05.431Z,100597.84
2022-08-18T22:25:52.908Z,100578.22
2022-08-18T22:29:00.711Z,100641.09
2022-08-18T22:31:50.939Z,100588.59
2022-08-18T22:34:38.487Z,100659.66
2022-08-18T22:37:30.266Z,100657.94
2022-08-18T22:40:21.624Z,100566.78
2022-08-18T22:43:09.536Z,100600.19
2022-08-18T22:45:56.874Z,100622.91
2022-08-18T22:48:45.835Z,100609.50
2022-08-18T22:51:36.806Z,100621.91
2022-08-18T22:54:26.355Z,100621.25
2022-08-18T22:57:14.660Z,100548.25
2022-08-18T23:00:12.828Z,100675.09
2022-08-18T23:03:01.465Z,100642.53
2022-08-18T23:05:48.833Z,100631.25
2022-08-18T23:08:55.477Z,100612.59
2022-08-18T23:11:43.403Z,100581.31
2022-08-18T23:14:32.842Z,100686.06
2022-08-18T23:17:21.479Z,100683.66
2022-08-18T23:20:12.548Z,100669.03
2022-08-18T23:23:05.486Z,100662.25
2022-08-18T23:25:55.659Z,100662.75
2022-08-18T23:28:46.624Z,100688.28
2022-08-18T23:31:34.054Z,100648.00
2022-08-18T23:34:23.188Z,100683.84
2022-08-18T23:37:10.592Z,100616.03
2022-08-18T23:39:58.427Z,100668.50
2022-08-18T23:42:46.477Z,100681.50
2022-08-18T23:45:36.384Z,100597.03
2022-08-18T23:48:23.882Z,100685.38
2022-08-18T23:51:11.212Z,100625.97
2022-08-18T23:54:08.078Z,100597.56
2022-08-18T23:56:56.386Z,100667.94
2022-08-18T23:59:43.709Z,100649.44
